Time;durP1;ratioP1;P1;durP2;ratioP2;P2;SDS_P1;SDS_P2;PMS_P1;PMS_P2;Temp;Humidity;BMP_temperature;BMP_pressure;BME280_temperature;BME280_humidity;BME280_pressure;Samples;Min_cycle;Max_cycle;Signal;HPM_P1;HPM_P2
2023/07/24 00:00:30;;;;;;;8.10;7.30;;;;;;;24.99;59.66;101518.86;107125;1265;25501;-50
2023/07/24 00:02:56;;;;;;;8.10;7.50;;;;;;;24.92;59.99;101519.06;107157;1255;25345;-50
2023/07/24 00:05:24;;;;;;;8.30;7.50;;;;;;;24.85;59.94;101517.23;107041;1265;25415;-50
2023/07/24 00:07:51;;;;;;;7.90;7.20;;;;;;;24.79;60.25;101518.52;106838;1264;25312;-49
2023/07/24 00:10:18;;;;;;;7.80;7.10;;;;;;;24.76;60.28;101522.64;106841;1271;25335;-51
2023/07/24 00:12:45;;;;;;;8.10;7.40;;;;;;;24.73;60.41;101522.84;106903;1267;25325;-49
2023/07/24 00:15:12;;;;;;;8.00;7.20;;;;;;;24.71;60.33;101522.43;107169;1260;25335;-50
2023/07/24 00:17:39;;;;;;;8.70;7.80;;;;;;;24.68;60.22;101525.27;107078;1264;25328;-50
2023/07/24 00:20:06;;;;;;;8.90;7.20;;;;;;;24.63;60.30;101525.65;107082;1272;25512;-50
2023/07/24 00:22:33;;;;;;;8.40;6.80;;;;;;;24.56;60.29;101525.45;107144;1263;25375;-50
2023/07/24 00:25:01;;;;;;;7.70;7.00;;;;;;;24.49;60.55;101525.73;107047;1265;25401;-50
2023/07/24 00:27:28;;;;;;;7.90;7.20;;;;;;;24.45;60.66;101520.50;107087;1265;25363;-50
2023/07/24 00:29:55;;;;;;;10.00;6.90;;;;;;;24.43;60.82;101522.96;107140;1265;25474;-50
2023/07/24 00:32:21;;;;;;;8.30;7.50;;;;;;;24.44;60.66;101517.57;106999;1257;24246;-51
2023/07/24 00:34:49;;;;;;;9.70;7.20;;;;;;;24.46;60.65;101521.83;106959;1265;25325;-50
2023/07/24 00:37:16;;;;;;;7.60;6.90;;;;;;;24.48;60.59;101519.22;107063;1262;22535;-50
2023/07/24 00:39:43;;;;;;;7.30;6.70;;;;;;;24.50;60.49;101521.56;106929;1263;22519;-51
2023/07/24 00:42:10;;;;;;;10.00;6.70;;;;;;;24.52;60.06;101525.67;106809;1266;25393;-50
2023/07/24 00:44:37;;;;;;;7.10;6.40;;;;;;;24.54;59.99;101522.91;106836;1265;25345;-51
2023/07/24 00:47:05;;;;;;;7.10;6.50;;;;;;;24.55;59.84;101524.07;106735;1267;25412;-50
2023/07/24 00:49:32;;;;;;;9.00;7.00;;;;;;;24.56;59.61;101526.68;107133;1253;23892;-50
2023/07/24 00:51:58;;;;;;;7.20;6.60;;;;;;;24.55;59.60;101524.76;107130;1269;25364;-50
2023/07/24 00:54:25;;;;;;;7.20;6.50;;;;;;;24.55;59.37;101523.91;107046;1256;24361;-50
2023/07/24 00:56:52;;;;;;;7.40;6.80;;;;;;;24.55;59.48;101522.29;106969;1268;25325;-49
2023/07/24 00:59:21;;;;;;;7.50;6.80;;;;;;;24.55;59.55;101522.14;106922;1266;24355;-50
2023/07/24 01:01:47;;;;;;;7.10;6.40;;;;;;;24.55;59.52;101520.88;107075;1262;25363;-50
2023/07/24 01:04:15;;;;;;;7.20;6.50;;;;;;;24.55;59.08;101520.55;107027;1259;25363;-50
2023/07/24 01:06:41;;;;;;;6.80;6.20;;;;;;;24.51;58.78;101521.35;107113;1253;24213;-50
2023/07/24 01:09:08;;;;;;;6.40;5.80;;;;;;;24.46;58.87;101520.60;107007;1256;25363;-51
2023/07/24 01:11:47;;;;;;;10.40;6.00;;;;;;;24.42;58.79;101524.46;107039;1269;25574;-50
2023/07/24 01:14:25;;;;;;;7.20;5.90;;;;;;;24.37;58.49;101524.05;106927;1267;22530;-50
2023/07/24 01:16:53;;;;;;;9.20;6.30;;;;;;;24.34;58.57;101523.78;107131;1263;25396;-50
2023/07/24 01:19:44;;;;;;;6.90;6.30;;;;;;;24.30;58.49;101523.84;107050;1264;22688;-49
2023/07/24 01:22:30;;;;;;;6.50;5.90;;;;;;;24.25;58.67;101526.23;107070;1255;22529;-51
2023/07/24 01:25:21;;;;;;;6.70;6.00;;;;;;;24.20;58.40;101525.52;107029;1259;25363;-50
2023/07/24 01:27:48;;;;;;;6.70;6.00;;;;;;;24.15;58.79;101524.82;106846;1267;25373;-51
2023/07/24 01:30:19;;;;;;;7.10;5.70;;;;;;;24.11;58.60;101521.17;106920;1258;25383;-50
2023/07/24 01:32:47;;;;;;;;;;;;;;;24.08;58.83;101525.83;107083;1264;22516;-51
2023/07/24 01:35:17;;;;;;;7.10;5.60;;;;;;;24.05;59.00;101523.31;106852;1269;25453;-50
2023/07/24 01:37:44;;;;;;;6.80;5.90;;;;;;;24.03;58.95;101520.78;106972;1267;22552;-51
2023/07/24 01:40:11;;;;;;;6.50;5.90;;;;;;;24.02;59.05;101522.81;106889;1266;25391;-50
2023/07/24 01:42:38;;;;;;;6.30;5.70;;;;;;;24.00;58.99;101517.59;107145;1256;22526;-51
2023/07/24 01:45:07;;;;;;;6.50;5.80;;;;;;;23.96;59.25;101515.25;107123;1263;25383;-50
2023/07/24 01:47:33;;;;;;;7.60;5.40;;;;;;;23.94;59.26;101520.12;107160;1256;22530;-50
2023/07/24 01:50:01;;;;;;;7.00;6.30;;;;;;;23.94;59.28;101517.12;106889;1268;22580;-51
2023/07/24 01:52:28;;;;;;;7.10;6.10;;;;;;;23.94;59.20;101516.25;107181;1266;25366;-51
2023/07/24 01:54:55;;;;;;;6.90;5.40;;;;;;;23.96;58.99;101518.59;107001;1262;25485;-51
2023/07/24 01:57:22;;;;;;;8.10;5.40;;;;;;;24.00;58.58;101523.31;107200;1266;25357;-51
2023/07/24 01:59:49;;;;;;;6.20;5.50;;;;;;;24.00;58.20;101521.68;106814;1273;25412;-50
2023/07/24 02:02:16;;;;;;;6.10;5.30;;;;;;;24.00;57.99;101522.59;107163;1259;25335;-50
2023/07/24 02:04:43;;;;;;;6.60;5.90;;;;;;;23.99;57.84;101522.49;107087;1267;25415;-51
2023/07/24 02:07:10;;;;;;;6.30;5.30;;;;;;;23.99;57.81;101523.20;106787;1269;25339;-50
2023/07/24 02:09:37;;;;;;;6.40;5.30;;;;;;;24.01;57.74;101526.97;107095;1253;25309;-51
2023/07/24 02:12:06;;;;;;;6.60;5.20;;;;;;;24.03;57.72;101525.23;106809;1269;25411;-50
2023/07/24 02:14:33;;;;;;;6.00;5.30;;;;;;;24.06;57.77;101524.71;106868;1268;22526;-51
2023/07/24 02:17:00;;;;;;;6.70;5.30;;;;;;;24.08;57.70;101526.00;107050;1265;25357;-51
2023/07/24 02:19:28;;;;;;;6.80;5.40;;;;;;;24.09;57.65;101530.36;106854;1264;25424;-50
2023/07/24 02:21:55;;;;;;;5.60;5.00;;;;;;;24.11;57.55;101530.94;106794;1269;25372;-50
2023/07/24 02:24:22;;;;;;;8.20;4.80;;;;;;;24.11;57.56;101529.13;107074;1252;25303;-50
2023/07/24 02:26:50;;;;;;;5.60;4.70;;;;;;;24.12;57.63;101532.79;106909;1267;25360;-50
2023/07/24 02:29:17;;;;;;;5.80;5.00;;;;;;;24.13;57.52;101526.33;107100;1267;25344;-50
2023/07/24 02:31:43;;;;;;;5.70;4.50;;;;;;;24.14;57.72;101530.70;107108;1269;25427;-50
2023/07/24 02:34:11;;;;;;;7.50;5.00;;;;;;;24.14;57.83;101528.91;107203;1268;25363;-49
2023/07/24 02:36:41;;;;;;;7.00;5.10;;;;;;;24.15;57.77;101532.23;106878;1268;25325;-50
2023/07/24 02:39:08;;;;;;;5.90;4.50;;;;;;;24.15;57.77;101529.94;107136;1261;22584;-50
2023/07/24 02:41:35;;;;;;;5.60;4.80;;;;;;;24.14;57.96;101526.84;106988;1270;25335;-49
2023/07/24 02:44:03;;;;;;;8.30;4.80;;;;;;;24.13;58.42;101526.92;107124;1266;25476;-50
2023/07/24 02:46:30;;;;;;;5.50;4.90;;;;;;;24.09;58.63;101525.41;107102;1256;24027;-50
2023/07/24 02:48:58;;;;;;;5.40;4.50;;;;;;;24.06;58.90;101523.67;107171;1266;25372;-50
2023/07/24 02:51:25;;;;;;;5.90;4.90;;;;;;;24.02;59.10;101522.97;107094;1256;25401;-51
2023/07/24 02:53:53;;;;;;;12.00;6.00;;;;;;;23.97;59.53;101524.58;106768;1269;25363;-51
2023/07/24 02:56:21;;;;;;;6.80;4.80;;;;;;;23.95;59.64;101527.54;107050;1264;25328;-50
2023/07/24 02:58:48;;;;;;;7.00;4.70;;;;;;;23.93;59.96;101528.73;107144;1262;22564;-51
2023/07/24 03:01:15;;;;;;;6.80;4.60;;;;;;;23.91;60.40;101530.10;107116;1265;25526;-50
2023/07/24 03:03:42;;;;;;;6.60;5.20;;;;;;;23.89;60.69;101527.90;106880;1260;25492;-50
2023/07/24 03:06:09;;;;;;;6.00;5.40;;;;;;;23.90;61.10;101532.66;106744;1268;25378;-51
2023/07/24 03:08:36;;;;;;;7.20;5.50;;;;;;;23.89;61.61;101531.80;106770;1268;25427;-50
2023/07/24 03:11:07;;;;;;;5.30;4.80;;;;;;;23.90;61.89;101528.94;106784;1271;25397;-51
2023/07/24 03:13:34;;;;;;;5.20;4.30;;;;;;;23.90;62.17;101528.72;106878;1258;25346;-50
2023/07/24 03:16:01;;;;;;;6.20;4.50;;;;;;;23.92;62.36;101529.69;106898;1266;25446;-50
2023/07/24 03:18:28;;;;;;;5.90;4.90;;;;;;;23.92;62.58;101532.68;106953;1269;25328;-50
2023/07/24 03:20:58;;;;;;;5.50;5.00;;;;;;;23.93;62.64;101529.40;106752;1270;25436;-50
2023/07/24 03:23:25;;;;;;;4.80;4.40;;;;;;;23.95;62.91;101529.11;106768;1266;22526;-50
2023/07/24 03:25:52;;;;;;;9.20;5.60;;;;;;;23.98;63.00;101531.78;106780;1268;25278;-51
2023/07/24 03:28:19;;;;;;;9.90;5.30;;;;;;;24.00;63.00;101532.16;106864;1268;25529;-50
2023/07/24 03:30:46;;;;;;;10.00;5.00;;;;;;;24.02;63.22;101532.02;106724;1263;25446;-50
2023/07/24 03:33:13;;;;;;;5.70;5.10;;;;;;;24.04;63.34;101534.04;106736;1259;25318;-51
2023/07/24 03:35:40;;;;;;;10.30;5.00;;;;;;;24.06;63.49;101530.71;106777;1270;25412;-50
2023/07/24 03:38:08;;;;;;;6.10;5.00;;;;;;;24.09;63.73;101533.35;107137;1263;25376;-50
2023/07/24 03:40:35;;;;;;;6.60;5.30;;;;;;;24.13;63.74;101530.81;106792;1269;25353;-51
2023/07/24 03:43:03;;;;;;;6.10;5.30;;;;;;;24.19;63.62;101530.57;106859;1266;22536;-50
2023/07/24 03:45:31;;;;;;;10.10;4.90;;;;;;;24.29;63.62;101534.39;107212;1267;23725;-50
2023/07/24 03:47:58;;;;;;;6.50;5.20;;;;;;;24.38;63.35;101535.69;107111;1270;25335;-50
2023/07/24 03:50:25;;;;;;;5.90;5.30;;;;;;;24.48;63.26;101532.90;106927;1273;25404;-50
2023/07/24 03:52:52;;;;;;;5.40;4.90;;;;;;;24.60;63.24;101534.23;106806;1267;25322;-51
2023/07/24 03:55:19;;;;;;;9.60;5.20;;;;;;;24.80;63.34;101533.73;107040;1266;22667;-49
2023/07/24 03:57:47;;;;;;;5.50;5.00;;;;;;;25.11;62.78;101531.56;107100;1271;25353;-50
2023/07/24 04:00:14;;;;;;;5.50;4.80;;;;;;;25.45;61.54;101532.14;107143;1268;25342;-51
2023/07/24 04:02:41;;;;;;;5.30;4.80;;;;;;;25.81;60.85;101533.21;107171;1263;25436;-50
2023/07/24 04:05:08;;;;;;;8.50;4.90;;;;;;;26.15;59.32;101532.55;107015;1262;25335;-51
2023/07/24 04:07:36;;;;;;;6.40;4.90;;;;;;;26.37;58.31;101533.86;107092;1268;25316;-50
2023/07/24 04:10:04;;;;;;;5.30;4.60;;;;;;;26.51;57.50;101530.31;107040;1264;25412;-51
2023/07/24 04:12:31;;;;;;;6.40;5.30;;;;;;;26.55;56.66;101529.80;106887;1270;25318;-51
2023/07/24 04:14:58;;;;;;;6.10;5.00;;;;;;;26.52;55.94;101533.42;106634;1269;25424;-50
2023/07/24 04:17:25;;;;;;;7.20;5.10;;;;;;;26.45;55.78;101536.30;106826;1270;25328;-50
2023/07/24 04:19:52;;;;;;;5.80;5.20;;;;;;;26.38;55.58;101533.98;107072;1267;25453;-51
2023/07/24 04:22:19;;;;;;;7.40;4.60;;;;;;;26.31;55.93;101536.80;107052;1256;25519;-51
2023/07/24 04:24:49;;;;;;;7.00;5.20;;;;;;;26.26;56.19;101540.72;107119;1265;22559;-50
2023/07/24 04:27:15;;;;;;;5.20;4.60;;;;;;;26.22;56.58;101543.73;106970;1265;24186;-50
2023/07/24 04:29:42;;;;;;;7.00;4.50;;;;;;;26.16;56.63;101544.34;106878;1257;25364;-50
2023/07/24 04:32:09;;;;;;;8.60;5.30;;;;;;;26.12;56.73;101549.87;106916;1271;25485;-50
2023/07/24 04:34:37;;;;;;;5.90;4.90;;;;;;;26.08;56.93;101553.13;106779;1256;25379;-50
2023/07/24 04:37:04;;;;;;;5.60;5.00;;;;;;;26.02;57.21;101552.46;107013;1274;25404;-51
2023/07/24 04:39:33;;;;;;;5.10;4.60;;;;;;;25.97;57.38;101553.23;107076;1256;25598;-50
2023/07/24 04:42:00;;;;;;;11.80;5.60;;;;;;;25.91;57.50;101552.44;106772;1270;25325;-50
2023/07/24 04:44:27;;;;;;;5.60;5.10;;;;;;;25.85;57.56;101551.61;107097;1267;25325;-50
2023/07/24 04:46:55;;;;;;;6.90;4.50;;;;;;;25.80;57.66;101549.99;107078;1267;23199;-49
2023/07/24 04:49:23;;;;;;;5.70;5.10;;;;;;;25.77;57.33;101553.09;106886;1274;25485;-50
2023/07/24 04:51:50;;;;;;;6.20;5.60;;;;;;;25.75;57.56;101555.90;107027;1263;22991;-50
2023/07/24 04:54:17;;;;;;;6.70;5.20;;;;;;;25.75;57.68;101557.66;107136;1263;22540;-49
2023/07/24 04:56:44;;;;;;;8.20;5.60;;;;;;;25.74;57.78;101559.70;107043;1267;25363;-49
2023/07/24 04:59:11;;;;;;;6.70;5.10;;;;;;;25.73;56.88;101556.38;107057;1266;25354;-49
2023/07/24 05:01:38;;;;;;;7.00;5.00;;;;;;;25.72;56.00;101558.02;107054;1262;22524;-50
2023/07/24 05:04:05;;;;;;;5.90;5.30;;;;;;;25.73;55.38;101559.02;107049;1266;25343;-50
2023/07/24 05:06:32;;;;;;;6.00;5.40;;;;;;;25.74;55.15;101562.34;107087;1256;22565;-49
2023/07/24 05:08:59;;;;;;;6.10;5.30;;;;;;;25.76;55.40;101559.89;106991;1272;25343;-49
2023/07/24 05:11:28;;;;;;;6.50;5.60;;;;;;;25.77;55.51;101553.58;107084;1267;24244;-50
2023/07/24 05:13:55;;;;;;;12.60;6.90;;;;;;;25.79;55.64;101556.81;106826;1260;25324;-50
2023/07/24 05:16:22;;;;;;;6.70;5.50;;;;;;;25.83;55.29;101557.29;106891;1265;25412;-49
2023/07/24 05:18:49;;;;;;;5.90;5.30;;;;;;;25.92;55.58;101562.51;107156;1268;25372;-49
2023/07/24 05:21:16;;;;;;;6.50;5.50;;;;;;;26.05;55.24;101556.91;107191;1268;25314;-50
2023/07/24 05:23:43;;;;;;;9.60;5.60;;;;;;;26.24;54.89;101560.30;107032;1267;25415;-50
2023/07/24 05:26:10;;;;;;;7.00;5.40;;;;;;;26.45;54.51;101558.34;107132;1267;25325;-51
2023/07/24 05:28:37;;;;;;;8.80;5.50;;;;;;;26.64;53.95;101558.65;106955;1265;25355;-50
2023/07/24 05:31:04;;;;;;;6.70;5.70;;;;;;;26.80;53.47;101560.48;107052;1271;25488;-51
2023/07/24 05:33:31;;;;;;;8.20;6.00;;;;;;;26.93;52.93;101556.63;107069;1267;24233;-50
2023/07/24 05:35:59;;;;;;;10.30;5.60;;;;;;;27.02;53.21;101552.33;107061;1263;25317;-50
2023/07/24 05:38:26;;;;;;;6.20;5.50;;;;;;;27.12;53.21;101554.53;106963;1261;25360;-50
2023/07/24 05:41:01;;;;;;;6.70;5.70;;;;;;;27.22;52.05;101554.88;106924;1269;25424;-50
2023/07/24 05:43:28;;;;;;;7.20;5.60;;;;;;;27.30;52.07;101553.49;107068;1260;25316;-50
2023/07/24 05:45:56;;;;;;;9.20;5.70;;;;;;;27.39;52.05;101550.48;106828;1276;25373;-50
2023/07/24 05:48:23;;;;;;;8.20;5.80;;;;;;;27.47;51.76;101552.23;107011;1267;25388;-50
2023/07/24 05:50:51;;;;;;;6.60;5.50;;;;;;;27.53;51.39;101553.00;107127;1261;25379;-50
2023/07/24 05:53:18;;;;;;;6.90;6.20;;;;;;;27.61;51.20;101555.14;107160;1260;25338;-50
2023/07/24 05:55:45;;;;;;;9.50;6.10;;;;;;;27.73;50.97;101551.72;107138;1256;25410;-50
2023/07/24 05:58:13;;;;;;;6.20;5.60;;;;;;;27.88;50.88;101555.65;107066;1260;25353;-49
2023/07/24 06:00:39;;;;;;;6.30;5.70;;;;;;;28.04;50.54;101556.79;107052;1267;25367;-50
2023/07/24 06:03:06;;;;;;;9.00;5.90;;;;;;;28.19;50.15;101557.67;107067;1258;25795;-50
2023/07/24 06:05:35;;;;;;;9.10;5.90;;;;;;;28.32;49.76;101557.87;107105;1257;23756;-50
2023/07/24 06:08:02;;;;;;;8.70;6.70;;;;;;;28.45;50.11;101560.27;107164;1264;25320;-50
2023/07/24 06:10:31;;;;;;;7.70;5.90;;;;;;;28.61;49.83;101558.77;107072;1261;25342;-49
2023/07/24 06:12:58;;;;;;;8.40;6.20;;;;;;;28.76;48.69;101555.88;107141;1260;25346;-49
2023/07/24 06:15:25;;;;;;;6.30;5.70;;;;;;;28.91;48.05;101553.70;107097;1257;24191;-49
2023/07/24 06:17:52;;;;;;;6.60;5.30;;;;;;;29.04;46.85;101549.40;107037;1267;25339;-50
2023/07/24 06:20:21;;;;;;;6.80;5.50;;;;;;;29.12;45.64;101549.56;107038;1258;25325;-50
2023/07/24 06:22:48;;;;;;;7.80;6.30;;;;;;;29.17;44.89;101550.54;107148;1267;25404;-49
2023/07/24 06:25:15;;;;;;;6.50;5.40;;;;;;;29.18;45.28;101549.92;106889;1267;23311;-50
2023/07/24 06:27:42;;;;;;;7.60;5.70;;;;;;;29.14;45.62;101549.58;106897;1265;25325;-49
2023/07/24 06:30:09;;;;;;;7.30;5.90;;;;;;;29.09;45.84;101550.00;107087;1267;25456;-49
2023/07/24 06:32:43;;;;;;;7.40;5.80;;;;;;;29.07;46.42;101550.89;106764;1268;22533;-50
2023/07/24 06:35:10;;;;;;;7.00;5.50;;;;;;;29.08;46.34;101547.44;107143;1261;25369;-50
2023/07/24 06:37:37;;;;;;;6.50;5.40;;;;;;;29.09;45.77;101550.02;106769;1270;25387;-49
2023/07/24 06:40:06;;;;;;;5.70;5.10;;;;;;;29.12;44.63;101544.25;106794;1257;24210;-50
2023/07/24 06:42:34;;;;;;;7.10;5.30;;;;;;;29.15;44.83;101540.55;107133;1264;22515;-49
2023/07/24 06:45:00;;;;;;;5.10;4.50;;;;;;;29.18;44.60;101541.56;107043;1260;22605;-49
2023/07/24 06:47:28;;;;;;;6.20;5.00;;;;;;;29.18;43.92;101541.21;107037;1267;25422;-50
2023/07/24 06:49:57;;;;;;;6.30;5.00;;;;;;;29.17;43.71;101538.59;107209;1267;22621;-49
2023/07/24 06:52:24;;;;;;;7.40;5.70;;;;;;;29.18;45.80;101536.00;106819;1267;25506;-51
2023/07/24 06:54:51;;;;;;;9.30;7.20;;;;;;;29.20;47.39;101535.72;106657;1270;22545;-49
2023/07/24 06:57:18;;;;;;;6.40;5.60;;;;;;;29.19;46.95;101530.75;107124;1264;25364;-50
2023/07/24 06:59:45;;;;;;;6.90;5.00;;;;;;;29.18;46.79;101531.00;107054;1261;25337;-50
2023/07/24 07:02:12;;;;;;;6.80;6.20;;;;;;;29.19;47.31;101529.84;107066;1267;25343;-50
2023/07/24 07:04:39;;;;;;;8.00;6.50;;;;;;;29.21;47.89;101529.52;107041;1256;25426;-50
2023/07/24 07:07:06;;;;;;;8.40;5.70;;;;;;;29.23;48.22;101526.30;107122;1258;25372;-50
2023/07/24 07:09:33;;;;;;;7.20;5.90;;;;;;;29.13;48.15;101528.55;107085;1267;25317;-50
2023/07/24 07:12:00;;;;;;;6.70;5.90;;;;;;;29.18;47.95;101533.17;107061;1267;25325;-49
2023/07/24 07:14:27;;;;;;;6.70;6.10;;;;;;;29.32;48.11;101528.20;107112;1271;25465;-49
2023/07/24 07:16:54;;;;;;;8.10;6.70;;;;;;;29.40;47.84;101522.42;107100;1267;25343;-49
2023/07/24 07:19:24;;;;;;;5.60;5.10;;;;;;;29.53;47.57;101518.56;107055;1267;25338;-50
2023/07/24 07:21:51;;;;;;;7.00;6.10;;;;;;;29.75;47.47;101517.47;106850;1264;25341;-50
2023/07/24 07:24:18;;;;;;;6.60;6.00;;;;;;;29.97;46.89;101517.56;106905;1257;25328;-49
2023/07/24 07:26:45;;;;;;;6.60;5.90;;;;;;;30.24;46.25;101514.05;106779;1270;25379;-50
2023/07/24 07:29:12;;;;;;;6.20;5.60;;;;;;;30.53;45.84;101515.93;106783;1267;26295;-49
2023/07/24 07:31:39;;;;;;;7.10;5.60;;;;;;;30.79;45.16;101514.84;106797;1270;25384;-50
2023/07/24 07:34:06;;;;;;;5.50;5.10;;;;;;;30.95;44.37;101511.48;107161;1261;25440;-49
2023/07/24 07:36:33;;;;;;;5.70;5.10;;;;;;;31.03;44.35;101509.21;107183;1257;23165;-49
2023/07/24 07:39:01;;;;;;;6.40;5.70;;;;;;;31.09;44.67;101516.15;106977;1267;25430;-49
2023/07/24 07:41:28;;;;;;;5.90;5.30;;;;;;;31.12;44.44;101512.46;106839;1261;24222;-49
2023/07/24 07:43:55;;;;;;;6.20;5.60;;;;;;;31.16;44.11;101515.40;107135;1266;25350;-50
2023/07/24 07:46:22;;;;;;;7.10;5.60;;;;;;;31.19;44.07;101517.00;106996;1257;25458;-49
2023/07/24 07:48:49;;;;;;;7.30;5.80;;;;;;;31.21;44.07;101518.09;107160;1257;25432;-49
2023/07/24 07:51:16;;;;;;;5.20;4.70;;;;;;;31.20;43.94;101519.79;107031;1261;25383;-50
2023/07/24 07:53:43;;;;;;;6.30;5.70;;;;;;;31.18;43.81;101519.87;106754;1267;25277;-50
2023/07/24 07:56:10;;;;;;;9.50;5.20;;;;;;;31.13;44.14;101515.29;106792;1264;366050;-49
2023/07/24 07:58:37;;;;;;;7.10;5.60;;;;;;;31.10;44.04;101511.67;106773;1273;25475;-49
2023/07/24 08:01:05;;;;;;;5.60;4.90;;;;;;;31.08;44.29;101511.83;107018;1268;25349;-50
2023/07/24 08:03:33;;;;;;;7.00;5.20;;;;;;;31.06;44.05;101513.61;107085;1263;25482;-51
2023/07/24 08:06:00;;;;;;;6.30;5.30;;;;;;;31.05;44.03;101506.58;107066;1260;25360;-51
2023/07/24 08:08:27;;;;;;;7.60;5.80;;;;;;;31.04;44.00;101503.13;107099;1264;25340;-50
2023/07/24 08:10:54;;;;;;;6.10;5.60;;;;;;;31.02;44.25;101501.13;106983;1264;25341;-50
2023/07/24 08:13:21;;;;;;;5.90;5.30;;;;;;;31.00;44.50;101498.41;107094;1264;25506;-49
2023/07/24 08:15:48;;;;;;;5.40;4.70;;;;;;;30.98;44.74;101497.89;106706;1267;25477;-52
2023/07/24 08:18:14;;;;;;;5.50;5.00;;;;;;;30.98;44.57;101497.55;106949;1264;22566;-50
2023/07/24 08:20:41;;;;;;;6.00;5.50;;;;;;;30.97;44.12;101495.02;106922;1254;25296;-51
2023/07/24 08:23:11;;;;;;;6.80;4.90;;;;;;;30.94;43.72;101497.39;107041;1264;25405;-50
2023/07/24 08:25:38;;;;;;;5.70;5.00;;;;;;;30.90;43.65;101499.38;107045;1269;25380;-51
2023/07/24 08:28:05;;;;;;;5.90;5.20;;;;;;;30.90;44.21;101500.54;107161;1264;25412;-51
2023/07/24 08:30:34;;;;;;;8.40;5.50;;;;;;;30.89;44.19;101502.02;107074;1263;25256;-50
2023/07/24 08:33:01;;;;;;;6.10;5.20;;;;;;;30.89;44.04;101500.27;107104;1267;24334;-49
2023/07/24 08:35:28;;;;;;;5.50;4.90;;;;;;;30.88;44.34;101498.90;107056;1267;25349;-50
2023/07/24 08:37:55;;;;;;;5.50;5.00;;;;;;;30.89;44.40;101497.61;106792;1273;25409;-50
2023/07/24 08:40:22;;;;;;;5.40;4.80;;;;;;;30.89;43.80;101496.13;107122;1251;25357;-50
2023/07/24 08:42:50;;;;;;;4.90;4.50;;;;;;;30.88;44.12;101495.32;106955;1263;25360;-49
2023/07/24 08:45:17;;;;;;;5.70;5.20;;;;;;;30.89;44.60;101496.17;107153;1264;25341;-49
2023/07/24 08:47:44;;;;;;;4.80;4.30;;;;;;;30.87;44.82;101498.27;107085;1260;25340;-50
2023/07/24 08:50:14;;;;;;;5.80;5.30;;;;;;;30.89;44.97;101496.30;107077;1256;25370;-50
2023/07/24 08:52:42;;;;;;;5.40;4.40;;;;;;;30.90;45.22;101497.23;107190;1256;22635;-49
2023/07/24 08:55:09;;;;;;;5.50;4.80;;;;;;;30.92;45.12;101500.82;106921;1267;25412;-49
2023/07/24 08:57:36;;;;;;;5.70;5.20;;;;;;;30.94;44.91;101495.67;107079;1267;25507;-49
2023/07/24 09:00:04;;;;;;;4.60;4.20;;;;;;;30.95;44.93;101495.18;107038;1264;25322;-50
2023/07/24 09:02:35;;;;;;;4.90;4.50;;;;;;;30.96;44.75;101499.72;106790;1257;22615;-49
2023/07/24 09:05:03;;;;;;;4.90;4.20;;;;;;;30.97;44.90;101495.58;106797;1271;25456;-49
2023/07/24 09:07:31;;;;;;;5.40;4.60;;;;;;;30.97;44.95;101493.77;106799;1263;24043;-49
2023/07/24 09:09:58;;;;;;;5.00;4.40;;;;;;;30.98;44.67;101491.14;107145;1253;25327;-49
2023/07/24 09:12:25;;;;;;;5.00;4.60;;;;;;;30.98;44.95;101487.39;107144;1267;25486;-50
2023/07/24 09:15:04;;;;;;;4.70;4.30;;;;;;;30.98;44.93;101487.71;107077;1258;25322;-49
2023/07/24 09:17:33;;;;;;;4.60;4.20;;;;;;;30.97;44.79;101492.99;107116;1264;25474;-49
2023/07/24 09:20:02;;;;;;;4.30;4.00;;;;;;;30.98;44.40;101488.25;106833;1263;26475;-50
2023/07/24 09:22:29;;;;;;;4.30;4.00;;;;;;;30.98;44.31;101485.52;107235;1260;25321;-51
2023/07/24 09:24:56;;;;;;;4.10;3.70;;;;;;;31.00;44.53;101487.15;107202;1256;22651;-50
2023/07/24 09:27:30;;;;;;;4.20;3.80;;;;;;;31.01;44.20;101481.29;107125;1256;25796;-50
2023/07/24 09:29:59;;;;;;;4.20;3.80;;;;;;;31.02;43.98;101484.31;107092;1253;24631;-50
2023/07/24 09:32:27;;;;;;;5.60;4.00;;;;;;;31.00;43.86;101479.85;107115;1257;25399;-50
2023/07/24 09:34:54;;;;;;;4.30;3.90;;;;;;;31.01;43.79;101483.31;107073;1264;25364;-50
2023/07/24 09:37:27;;;;;;;4.50;4.10;;;;;;;31.02;43.69;101483.72;107071;1256;25471;-50
2023/07/24 09:39:54;;;;;;;4.60;4.20;;;;;;;31.04;43.57;101479.27;107086;1257;25347;-50
2023/07/24 09:42:35;;;;;;;4.60;4.20;;;;;;;31.05;43.51;101474.52;106865;1256;25477;-50
2023/07/24 09:45:08;;;;;;;4.50;4.00;;;;;;;31.06;43.42;101470.29;106853;1262;22561;-50
2023/07/24 09:47:35;;;;;;;4.20;3.90;;;;;;;31.08;43.30;101468.81;107054;1252;22635;-50
2023/07/24 09:50:22;;;;;;;4.10;3.70;;;;;;;31.10;43.14;101467.86;106489;1271;25325;-49
2023/07/24 09:52:49;;;;;;;4.80;4.30;;;;;;;31.12;42.37;101465.60;106861;1269;25391;-49
2023/07/24 09:55:22;;;;;;;4.30;3.90;;;;;;;31.13;42.02;101470.80;106974;1255;25360;-50
2023/07/24 09:57:48;;;;;;;5.10;4.00;;;;;;;31.15;42.33;101464.91;107142;1267;25351;-50
2023/07/24 10:00:15;;;;;;;4.70;4.10;;;;;;;31.17;42.71;101463.66;107061;1264;25327;-49
2023/07/24 10:02:43;;;;;;;9.90;4.60;;;;;;;31.18;43.42;101458.53;107093;1262;25443;-50
2023/07/24 10:05:09;;;;;;;4.60;4.20;;;;;;;31.19;44.09;101454.10;106824;1267;25380;-49
2023/07/24 10:07:37;;;;;;;4.80;4.20;;;;;;;31.21;44.73;101451.21;107107;1256;25340;-49
2023/07/24 10:10:04;;;;;;;4.60;4.10;;;;;;;31.23;45.24;101448.88;107036;1251;22554;-49
2023/07/24 10:12:32;;;;;;;5.10;4.70;;;;;;;31.25;46.07;101449.01;107115;1252;23882;-49
2023/07/24 10:14:59;;;;;;;6.10;5.10;;;;;;;31.26;47.07;101445.66;107120;1264;25325;-50
2023/07/24 10:17:36;;;;;;;5.40;4.80;;;;;;;31.27;47.56;101445.94;107135;1264;25353;-50
2023/07/24 10:20:08;;;;;;;4.90;4.40;;;;;;;31.28;48.11;101445.52;107048;1259;25230;-50
2023/07/24 10:22:35;;;;;;;;;;;;;;;31.27;48.19;101442.71;107079;1259;25302;-50
2023/07/24 10:25:03;;;;;;;4.10;3.70;;;;;;;31.23;47.72;101443.67;106760;1268;25353;-50
2023/07/24 10:27:31;;;;;;;4.80;3.60;;;;;;;31.16;47.34;101437.77;107051;1264;22538;-50
2023/07/24 10:30:02;;;;;;;5.10;3.20;;;;;;;31.10;47.10;101432.45;107073;1264;25332;-50
2023/07/24 10:32:49;;;;;;;3.60;3.30;;;;;;;31.05;46.82;101426.77;106863;1258;24039;-50
2023/07/24 10:35:22;;;;;;;5.20;4.30;;;;;;;31.04;46.99;101424.27;107019;1255;25662;-50
2023/07/24 10:37:49;;;;;;;4.70;3.90;;;;;;;31.04;46.97;101425.52;107040;1259;22535;-50
2023/07/24 10:40:20;;;;;;;3.80;3.50;;;;;;;31.04;46.80;101421.71;107080;1267;25370;-50
2023/07/24 10:42:58;;;;;;;4.00;3.70;;;;;;;31.05;46.71;101418.01;107057;1264;25376;-50
2023/07/24 10:45:25;;;;;;;4.90;3.90;;;;;;;31.06;46.74;101415.05;107242;1260;25550;-50
2023/07/24 10:47:53;;;;;;;4.50;4.10;;;;;;;31.09;47.00;101415.48;107118;1256;25836;-49
2023/07/24 10:50:20;;;;;;;8.10;4.00;;;;;;;31.12;47.33;101411.63;106905;1263;22525;-49
2023/07/24 10:52:47;;;;;;;5.50;4.40;;;;;;;31.15;47.37;101411.17;107082;1264;25373;-50
2023/07/24 10:55:14;;;;;;;4.50;3.50;;;;;;;31.16;47.51;101406.59;107091;1264;25350;-49
2023/07/24 10:57:41;;;;;;;4.40;4.10;;;;;;;31.16;47.88;101402.77;107122;1254;25464;-50
2023/07/24 11:00:08;;;;;;;4.70;3.80;;;;;;;31.19;48.52;101401.05;107088;1256;25360;-51
2023/07/24 11:02:35;;;;;;;4.30;4.00;;;;;;;31.21;49.07;101403.03;107098;1262;22756;-50
2023/07/24 11:05:02;;;;;;;3.90;3.40;;;;;;;31.22;49.39;101406.18;107098;1263;25398;-49
2023/07/24 11:07:33;;;;;;;5.00;3.90;;;;;;;31.23;49.52;101401.35;107138;1263;25332;-50
2023/07/24 11:10:00;;;;;;;4.30;3.90;;;;;;;31.25;49.47;101401.31;107113;1263;25321;-50
2023/07/24 11:12:30;;;;;;;4.00;3.70;;;;;;;31.27;49.49;101401.20;107091;1267;24320;-50
2023/07/24 11:14:58;;;;;;;5.00;4.10;;;;;;;31.29;49.62;101397.86;107085;1253;25332;-50
2023/07/24 11:17:37;;;;;;;4.90;4.10;;;;;;;31.33;49.53;101397.86;106884;1264;25331;-50
2023/07/24 11:20:14;;;;;;;4.30;3.90;;;;;;;31.35;49.53;101387.23;106992;1259;22543;-50